sensor_id;sensor_type;location;lat;lon;timestamp;P1;durP1;ratioP1;P2;durP2;ratioP2
15006;SDS011;7599;50.748;13.142;2023-08-30T06:34:03;0.77;;;0.75;;
15006;SDS011;7599;50.748;13.142;2023-08-30T06:37:07;2.75;;;0.52;;
15006;SDS011;7599;50.748;13.142;2023-08-30T06:40:10;0.80;;;0.50;;
15006;SDS011;7599;50.748;13.142;2023-08-30T06:43:13;0.30;;;0.30;;
15006;SDS011;7599;50.748;13.142;2023-08-30T06:46:16;0.32;;;0.32;;
15006;SDS011;7599;50.748;13.142;2023-08-30T06:49:20;0.63;;;0.32;;
15006;SDS011;7599;50.748;13.142;2023-08-30T06:52:22;1.02;;;0.50;;
15006;SDS011;7599;50.748;13.142;2023-08-30T06:55:25;0.38;;;0.38;;
15006;SDS011;7599;50.748;13.142;2023-08-30T06:58:27;0.47;;;0.35;;
15006;SDS011;7599;50.748;13.142;2023-08-30T07:01:30;0.45;;;0.40;;
15006;SDS011;7599;50.748;13.142;2023-08-30T07:04:38;0.50;;;0.40;;
15006;SDS011;7599;50.748;13.142;2023-08-30T07:07:41;0.30;;;0.30;;
15006;SDS011;7599;50.748;13.142;2023-08-30T07:10:44;0.30;;;0.30;;
15006;SDS011;7599;50.748;13.142;2023-08-30T07:13:46;0.30;;;0.30;;
15006;SDS011;7599;50.748;13.142;2023-08-30T07:16:49;1.25;;;0.43;;
15006;SDS011;7599;50.748;13.142;2023-08-30T07:19:53;0.43;;;0.40;;
15006;SDS011;7599;50.748;13.142;2023-08-30T07:22:56;0.47;;;0.40;;
15006;SDS011;7599;50.748;13.142;2023-08-30T07:29:01;0.50;;;0.30;;
15006;SDS011;7599;50.748;13.142;2023-08-30T07:32:06;0.40;;;0.40;;
15006;SDS011;7599;50.748;13.142;2023-08-30T07:35:10;0.32;;;0.32;;
15006;SDS011;7599;50.748;13.142;2023-08-30T07:38:15;0.40;;;0.30;;
15006;SDS011;7599;50.748;13.142;2023-08-30T07:41:18;0.82;;;0.43;;
15006;SDS011;7599;50.748;13.142;2023-08-30T07:44:20;0.40;;;0.32;;
15006;SDS011;7599;50.748;13.142;2023-08-30T07:47:23;0.55;;;0.20;;
15006;SDS011;7599;50.748;13.142;2023-08-30T07:50:27;0.30;;;0.30;;
15006;SDS011;7599;50.748;13.142;2023-08-30T07:53:30;0.40;;;0.40;;
15006;SDS011;7599;50.748;13.142;2023-08-30T07:56:32;0.22;;;0.22;;
15006;SDS011;7599;50.748;13.142;2023-08-30T07:59:35;0.40;;;0.30;;
15006;SDS011;7599;50.748;13.142;2023-08-30T08:02:39;0.30;;;0.30;;
15006;SDS011;7599;50.748;13.142;2023-08-30T08:05:43;0.30;;;0.30;;
15006;SDS011;7599;50.748;13.142;2023-08-30T08:08:45;0.30;;;0.30;;
15006;SDS011;7599;50.748;13.142;2023-08-30T08:11:48;0.38;;;0.35;;
15006;SDS011;7599;50.748;13.142;2023-08-30T08:14:51;0.30;;;0.30;;
15006;SDS011;7599;50.748;13.142;2023-08-30T08:17:53;0.30;;;0.30;;
15006;SDS011;7599;50.748;13.142;2023-08-30T08:20:57;0.30;;;0.30;;
15006;SDS011;7599;50.748;13.142;2023-08-30T08:24:00;0.70;;;0.30;;
15006;SDS011;7599;50.748;13.142;2023-08-30T08:27:03;1.38;;;0.30;;
15006;SDS011;7599;50.748;13.142;2023-08-30T08:30:07;0.50;;;0.40;;
15006;SDS011;7599;50.748;13.142;2023-08-30T08:33:10;1.20;;;0.40;;
15006;SDS011;7599;50.748;13.142;2023-08-30T08:36:14;1.50;;;0.30;;
15006;SDS011;7599;50.748;13.142;2023-08-30T08:39:17;0.30;;;0.30;;
15006;SDS011;7599;50.748;13.142;2023-08-30T08:42:20;1.60;;;0.40;;
15006;SDS011;7599;50.748;13.142;2023-08-30T08:45:22;0.70;;;0.40;;
15006;SDS011;7599;50.748;13.142;2023-08-30T08:48:25;2.25;;;0.50;;
15006;SDS011;7599;50.748;13.142;2023-08-30T08:51:32;0.73;;;0.43;;
15006;SDS011;7599;50.748;13.142;2023-08-30T08:54:36;0.98;;;0.55;;
15006;SDS011;7599;50.748;13.142;2023-08-30T08:57:41;1.58;;;0.35;;
15006;SDS011;7599;50.748;13.142;2023-08-30T09:00:47;0.57;;;0.32;;
15006;SDS011;7599;50.748;13.142;2023-08-30T09:03:50;1.58;;;0.40;;
15006;SDS011;7599;50.748;13.142;2023-08-30T09:06:54;1.45;;;0.32;;
15006;SDS011;7599;50.748;13.142;2023-08-30T09:09:57;0.47;;;0.40;;
15006;SDS011;7599;50.748;13.142;2023-08-30T09:13:00;0.57;;;0.40;;
15006;SDS011;7599;50.748;13.142;2023-08-30T09:16:10;1.42;;;0.45;;
15006;SDS011;7599;50.748;13.142;2023-08-30T09:19:19;0.60;;;0.40;;
15006;SDS011;7599;50.748;13.142;2023-08-30T09:22:36;0.63;;;0.35;;
15006;SDS011;7599;50.748;13.142;2023-08-30T09:25:39;1.05;;;0.30;;
15006;SDS011;7599;50.748;13.142;2023-08-30T09:28:42;0.30;;;0.30;;
15006;SDS011;7599;50.748;13.142;2023-08-30T09:31:46;1.40;;;0.30;;
15006;SDS011;7599;50.748;13.142;2023-08-30T09:34:48;1.55;;;0.43;;
15006;SDS011;7599;50.748;13.142;2023-08-30T09:37:52;0.82;;;0.40;;
15006;SDS011;7599;50.748;13.142;2023-08-30T09:41:02;0.73;;;0.40;;
15006;SDS011;7599;50.748;13.142;2023-08-30T09:44:06;1.70;;;0.50;;
15006;SDS011;7599;50.748;13.142;2023-08-30T09:47:14;1.10;;;0.30;;
15006;SDS011;7599;50.748;13.142;2023-08-30T09:50:19;0.40;;;0.32;;
15006;SDS011;7599;50.748;13.142;2023-08-30T09:53:25;0.30;;;0.30;;
15006;SDS011;7599;50.748;13.142;2023-08-30T09:56:29;0.57;;;0.35;;
15006;SDS011;7599;50.748;13.142;2023-08-30T09:59:33;0.30;;;0.30;;
15006;SDS011;7599;50.748;13.142;2023-08-30T10:02:35;0.50;;;0.30;;
15006;SDS011;7599;50.748;13.142;2023-08-30T10:05:41;1.10;;;0.32;;
15006;SDS011;7599;50.748;13.142;2023-08-30T10:08:45;0.50;;;0.32;;
15006;SDS011;7599;50.748;13.142;2023-08-30T10:11:51;0.57;;;0.30;;
15006;SDS011;7599;50.748;13.142;2023-08-30T10:14:54;0.73;;;0.28;;
15006;SDS011;7599;50.748;13.142;2023-08-30T10:17:59;0.93;;;0.63;;
15006;SDS011;7599;50.748;13.142;2023-08-30T10:21:05;3.88;;;0.30;;
15006;SDS011;7599;50.748;13.142;2023-08-30T10:24:12;1.27;;;0.30;;
15006;SDS011;7599;50.748;13.142;2023-08-30T10:27:34;0.30;;;0.22;;
15006;SDS011;7599;50.748;13.142;2023-08-30T10:30:39;0.20;;;0.20;;
15006;SDS011;7599;50.748;13.142;2023-08-30T10:33:48;0.50;;;0.40;;
15006;SDS011;7599;50.748;13.142;2023-08-30T10:36:58;0.50;;;0.40;;
15006;SDS011;7599;50.748;13.142;2023-08-30T10:40:03;0.22;;;0.22;;
15006;SDS011;7599;50.748;13.142;2023-08-30T10:43:07;0.30;;;0.30;;
15006;SDS011;7599;50.748;13.142;2023-08-30T10:46:10;0.43;;;0.40;;
15006;SDS011;7599;50.748;13.142;2023-08-30T10:49:14;0.85;;;0.38;;
15006;SDS011;7599;50.748;13.142;2023-08-30T10:52:16;0.43;;;0.43;;
15006;SDS011;7599;50.748;13.142;2023-08-30T10:55:21;0.68;;;0.32;;
15006;SDS011;7599;50.748;13.142;2023-08-30T10:58:25;0.75;;;0.40;;
15006;SDS011;7599;50.748;13.142;2023-08-30T11:01:27;0.30;;;0.20;;
15006;SDS011;7599;50.748;13.142;2023-08-30T11:04:31;0.68;;;0.30;;
15006;SDS011;7599;50.748;13.142;2023-08-30T11:07:33;0.28;;;0.22;;
15006;SDS011;7599;50.748;13.142;2023-08-30T11:10:38;0.30;;;0.30;;
15006;SDS011;7599;50.748;13.142;2023-08-30T11:13:43;0.63;;;0.30;;
15006;SDS011;7599;50.748;13.142;2023-08-30T11:16:46;0.80;;;0.50;;
15006;SDS011;7599;50.748;13.142;2023-08-30T11:19:49;0.88;;;0.47;;
15006;SDS011;7599;50.748;13.142;2023-08-30T11:22:53;0.20;;;0.20;;
15006;SDS011;7599;50.748;13.142;2023-08-30T11:25:59;0.93;;;0.30;;
15006;SDS011;7599;50.748;13.142;2023-08-30T11:29:05;0.30;;;0.30;;
15006;SDS011;7599;50.748;13.142;2023-08-30T11:32:08;0.25;;;0.20;;
15006;SDS011;7599;50.748;13.142;2023-08-30T11:35:11;0.50;;;0.38;;
15006;SDS011;7599;50.748;13.142;2023-08-30T11:38:13;3.25;;;0.32;;
15006;SDS011;7599;50.748;13.142;2023-08-30T11:41:17;3.03;;;0.47;;
15006;SDS011;7599;50.748;13.142;2023-08-30T11:44:23;1.45;;;0.30;;
15006;SDS011;7599;50.748;13.142;2023-08-30T11:47:26;0.40;;;0.22;;
15006;SDS011;7599;50.748;13.142;2023-08-30T11:50:29;0.30;;;0.30;;
15006;SDS011;7599;50.748;13.142;2023-08-30T11:53:47;0.30;;;0.30;;
15006;SDS011;7599;50.748;13.142;2023-08-30T11:56:52;0.22;;;0.22;;
15006;SDS011;7599;50.748;13.142;2023-08-30T11:59:54;2.10;;;0.43;;
15006;SDS011;7599;50.748;13.142;2023-08-30T12:02:57;3.22;;;0.30;;
15006;SDS011;7599;50.748;13.142;2023-08-30T12:05:59;1.85;;;0.40;;
15006;SDS011;7599;50.748;13.142;2023-08-30T12:09:03;0.32;;;0.30;;
15006;SDS011;7599;50.748;13.142;2023-08-30T12:12:08;0.30;;;0.30;;
15006;SDS011;7599;50.748;13.142;2023-08-30T12:15:13;0.68;;;0.32;;
15006;SDS011;7599;50.748;13.142;2023-08-30T12:18:16;0.40;;;0.35;;
15006;SDS011;7599;50.748;13.142;2023-08-30T12:21:19;1.70;;;0.40;;
15006;SDS011;7599;50.748;13.142;2023-08-30T12:24:21;0.68;;;0.28;;
15006;SDS011;7599;50.748;13.142;2023-08-30T12:27:26;1.20;;;0.30;;
15006;SDS011;7599;50.748;13.142;2023-08-30T12:30:29;0.40;;;0.30;;
15006;SDS011;7599;50.748;13.142;2023-08-30T12:33:32;0.30;;;0.30;;
15006;SDS011;7599;50.748;13.142;2023-08-30T12:36:35;1.05;;;0.30;;
15006;SDS011;7599;50.748;13.142;2023-08-30T12:39:38;1.60;;;0.30;;
15006;SDS011;7599;50.748;13.142;2023-08-30T12:42:42;1.80;;;0.35;;
15006;SDS011;7599;50.748;13.142;2023-08-30T12:45:45;0.43;;;0.40;;
15006;SDS011;7599;50.748;13.142;2023-08-30T12:48:49;0.63;;;0.20;;
15006;SDS011;7599;50.748;13.142;2023-08-30T12:51:51;0.40;;;0.30;;
15006;SDS011;7599;50.748;13.142;2023-08-30T12:54:54;0.30;;;0.25;;
15006;SDS011;7599;50.748;13.142;2023-08-30T12:57:58;0.20;;;0.20;;
15006;SDS011;7599;50.748;13.142;2023-08-30T13:01:00;0.30;;;0.20;;
15006;SDS011;7599;50.748;13.142;2023-08-30T13:04:04;0.20;;;0.20;;
15006;SDS011;7599;50.748;13.142;2023-08-30T13:07:06;0.38;;;0.28;;
15006;SDS011;7599;50.748;13.142;2023-08-30T13:10:09;0.20;;;0.20;;
15006;SDS011;7599;50.748;13.142;2023-08-30T13:13:14;0.60;;;0.28;;
15006;SDS011;7599;50.748;13.142;2023-08-30T13:16:16;0.40;;;0.20;;
15006;SDS011;7599;50.748;13.142;2023-08-30T13:19:19;0.20;;;0.20;;
15006;SDS011;7599;50.748;13.142;2023-08-30T13:22:22;0.63;;;0.20;;
15006;SDS011;7599;50.748;13.142;2023-08-30T13:25:24;0.28;;;0.22;;
15006;SDS011;7599;50.748;13.142;2023-08-30T13:28:29;0.30;;;0.20;;
15006;SDS011;7599;50.748;13.142;2023-08-30T13:31:32;0.25;;;0.22;;
15006;SDS011;7599;50.748;13.142;2023-08-30T13:34:34;1.45;;;0.25;;
15006;SDS011;7599;50.748;13.142;2023-08-30T13:37:37;0.80;;;0.25;;
15006;SDS011;7599;50.748;13.142;2023-08-30T13:40:40;0.60;;;0.45;;
15006;SDS011;7599;50.748;13.142;2023-08-30T13:43:44;0.47;;;0.30;;
15006;SDS011;7599;50.748;13.142;2023-08-30T13:46:47;0.32;;;0.30;;
15006;SDS011;7599;50.748;13.142;2023-08-30T13:49:50;0.52;;;0.20;;
15006;SDS011;7599;50.748;13.142;2023-08-30T13:52:52;0.68;;;0.30;;
15006;SDS011;7599;50.748;13.142;2023-08-30T13:55:55;0.77;;;0.40;;
15006;SDS011;7599;50.748;13.142;2023-08-30T13:58:59;4.90;;;1.05;;
15006;SDS011;7599;50.748;13.142;2023-08-30T14:02:02;2.08;;;0.30;;
15006;SDS011;7599;50.748;13.142;2023-08-30T14:05:06;0.45;;;0.30;;
15006;SDS011;7599;50.748;13.142;2023-08-30T14:08:09;0.57;;;0.40;;
15006;SDS011;7599;50.748;13.142;2023-08-30T14:11:13;0.32;;;0.32;;
15006;SDS011;7599;50.748;13.142;2023-08-30T14:14:17;0.38;;;0.35;;
15006;SDS011;7599;50.748;13.142;2023-08-30T14:17:20;0.65;;;0.30;;
15006;SDS011;7599;50.748;13.142;2023-08-30T14:20:25;0.65;;;0.30;;
15006;SDS011;7599;50.748;13.142;2023-08-30T14:23:28;0.30;;;0.20;;
15006;SDS011;7599;50.748;13.142;2023-08-30T14:26:31;0.30;;;0.30;;
15006;SDS011;7599;50.748;13.142;2023-08-30T14:29:36;0.65;;;0.20;;
15006;SDS011;7599;50.748;13.142;2023-08-30T14:32:39;0.20;;;0.20;;
15006;SDS011;7599;50.748;13.142;2023-08-30T14:35:41;0.55;;;0.30;;
15006;SDS011;7599;50.748;13.142;2023-08-30T14:38:44;0.50;;;0.28;;
15006;SDS011;7599;50.748;13.142;2023-08-30T14:41:47;0.60;;;0.30;;
15006;SDS011;7599;50.748;13.142;2023-08-30T14:44:51;1.40;;;0.28;;
15006;SDS011;7599;50.748;13.142;2023-08-30T14:47:53;0.47;;;0.47;;
15006;SDS011;7599;50.748;13.142;2023-08-30T14:50:56;0.57;;;0.50;;
15006;SDS011;7599;50.748;13.142;2023-08-30T14:53:59;0.30;;;0.30;;
15006;SDS011;7599;50.748;13.142;2023-08-30T14:57:01;0.30;;;0.22;;
15006;SDS011;7599;50.748;13.142;2023-08-30T15:00:06;0.20;;;0.20;;
15006;SDS011;7599;50.748;13.142;2023-08-30T15:03:10;0.25;;;0.20;;
15006;SDS011;7599;50.748;13.142;2023-08-30T15:06:13;0.22;;;0.22;;
15006;SDS011;7599;50.748;13.142;2023-08-30T15:09:15;0.20;;;0.20;;
15006;SDS011;7599;50.748;13.142;2023-08-30T15:12:18;0.20;;;0.20;;
15006;SDS011;7599;50.748;13.142;2023-08-30T15:15:22;0.38;;;0.10;;
15006;SDS011;7599;50.748;13.142;2023-08-30T15:18:25;0.40;;;0.20;;
15006;SDS011;7599;50.748;13.142;2023-08-30T15:21:27;0.43;;;0.30;;
15006;SDS011;7599;50.748;13.142;2023-08-30T15:24:30;6.75;;;0.40;;
15006;SDS011;7599;50.748;13.142;2023-08-30T15:27:33;0.55;;;0.20;;
15006;SDS011;7599;50.748;13.142;2023-08-30T15:30:37;2.15;;;0.30;;
15006;SDS011;7599;50.748;13.142;2023-08-30T15:33:42;0.40;;;0.25;;
15006;SDS011;7599;50.748;13.142;2023-08-30T15:36:52;0.22;;;0.20;;
15006;SDS011;7599;50.748;13.142;2023-08-30T15:40:30;1.20;;;0.30;;
15006;SDS011;7599;50.748;13.142;2023-08-30T15:43:58;1.00;;;0.30;;
15006;SDS011;7599;50.748;13.142;2023-08-30T15:50:34;0.82;;;0.30;;
15006;SDS011;7599;50.748;13.142;2023-08-30T15:53:37;1.67;;;0.50;;
15006;SDS011;7599;50.748;13.142;2023-08-30T15:56:42;0.32;;;0.32;;
15006;SDS011;7599;50.748;13.142;2023-08-30T15:59:46;0.20;;;0.20;;
15006;SDS011;7599;50.748;13.142;2023-08-30T16:02:50;0.93;;;0.43;;
15006;SDS011;7599;50.748;13.142;2023-08-30T16:05:55;0.30;;;0.30;;
15006;SDS011;7599;50.748;13.142;2023-08-30T16:08:58;0.28;;;0.20;;
15006;SDS011;7599;50.748;13.142;2023-08-30T16:12:04;0.95;;;0.40;;
15006;SDS011;7599;50.748;13.142;2023-08-30T16:15:07;0.60;;;0.60;;
15006;SDS011;7599;50.748;13.142;2023-08-30T16:18:11;0.40;;;0.30;;
15006;SDS011;7599;50.748;13.142;2023-08-30T16:21:14;1.33;;;0.30;;
15006;SDS011;7599;50.748;13.142;2023-08-30T16:24:17;0.52;;;0.32;;
15006;SDS011;7599;50.748;13.142;2023-08-30T16:27:20;0.40;;;0.28;;
15006;SDS011;7599;50.748;13.142;2023-08-30T16:30:22;0.45;;;0.30;;
15006;SDS011;7599;50.748;13.142;2023-08-30T16:33:28;0.40;;;0.35;;
15006;SDS011;7599;50.748;13.142;2023-08-30T16:36:31;0.30;;;0.30;;
15006;SDS011;7599;50.748;13.142;2023-08-30T16:39:33;0.43;;;0.32;;
15006;SDS011;7599;50.748;13.142;2023-08-30T16:42:36;0.20;;;0.20;;
15006;SDS011;7599;50.748;13.142;2023-08-30T16:45:39;0.38;;;0.38;;
15006;SDS011;7599;50.748;13.142;2023-08-30T16:48:43;0.30;;;0.30;;
15006;SDS011;7599;50.748;13.142;2023-08-30T16:51:46;1.00;;;0.40;;
15006;SDS011;7599;50.748;13.142;2023-08-30T16:54:48;0.38;;;0.22;;
15006;SDS011;7599;50.748;13.142;2023-08-30T16:57:51;0.60;;;0.25;;
15006;SDS011;7599;50.748;13.142;2023-08-30T17:00:54;1.88;;;0.47;;
15006;SDS011;7599;50.748;13.142;2023-08-30T17:03:58;2.25;;;0.30;;
15006;SDS011;7599;50.748;13.142;2023-08-30T17:07:01;1.10;;;0.30;;
15006;SDS011;7599;50.748;13.142;2023-08-30T17:10:05;0.73;;;0.35;;
15006;SDS011;7599;50.748;13.142;2023-08-30T17:13:08;0.85;;;0.32;;
15006;SDS011;7599;50.748;13.142;2023-08-30T17:16:12;0.52;;;0.40;;
15006;SDS011;7599;50.748;13.142;2023-08-30T17:19:15;0.25;;;0.25;;
15006;SDS011;7599;50.748;13.142;2023-08-30T17:22:19;0.57;;;0.40;;
15006;SDS011;7599;50.748;13.142;2023-08-30T17:25:21;0.40;;;0.40;;
15006;SDS011;7599;50.748;13.142;2023-08-30T17:28:24;0.85;;;0.30;;
15006;SDS011;7599;50.748;13.142;2023-08-30T17:31:27;0.73;;;0.50;;
15006;SDS011;7599;50.748;13.142;2023-08-30T17:34:32;1.17;;;0.50;;
15006;SDS011;7599;50.748;13.142;2023-08-30T17:37:45;0.57;;;0.40;;
15006;SDS011;7599;50.748;13.142;2023-08-30T17:40:48;2.15;;;0.50;;
15006;SDS011;7599;50.748;13.142;2023-08-30T17:43:50;0.40;;;0.40;;
15006;SDS011;7599;50.748;13.142;2023-08-30T17:46:53;0.38;;;0.30;;
15006;SDS011;7599;50.748;13.142;2023-08-30T17:50:00;0.63;;;0.40;;
15006;SDS011;7599;50.748;13.142;2023-08-30T17:53:03;2.25;;;0.40;;
15006;SDS011;7599;50.748;13.142;2023-08-30T17:56:05;0.98;;;0.38;;
15006;SDS011;7599;50.748;13.142;2023-08-30T17:59:09;0.45;;;0.30;;
15006;SDS011;7599;50.748;13.142;2023-08-30T18:02:12;0.73;;;0.52;;
15006;SDS011;7599;50.748;13.142;2023-08-30T18:05:16;0.30;;;0.30;;
15006;SDS011;7599;50.748;13.142;2023-08-30T18:08:20;0.90;;;0.43;;
15006;SDS011;7599;50.748;13.142;2023-08-30T18:11:23;1.33;;;0.30;;
15006;SDS011;7599;50.748;13.142;2023-08-30T18:14:25;1.27;;;0.40;;
15006;SDS011;7599;50.748;13.142;2023-08-30T18:17:28;1.48;;;0.40;;
15006;SDS011;7599;50.748;13.142;2023-08-30T18:20:35;1.05;;;0.40;;
15006;SDS011;7599;50.748;13.142;2023-08-30T18:23:39;4.97;;;0.70;;
15006;SDS011;7599;50.748;13.142;2023-08-30T18:26:47;1.75;;;0.68;;
15006;SDS011;7599;50.748;13.142;2023-08-30T18:29:51;3.33;;;1.05;;
15006;SDS011;7599;50.748;13.142;2023-08-30T18:32:54;4.47;;;0.85;;
15006;SDS011;7599;50.748;13.142;2023-08-30T18:36:00;3.30;;;0.65;;
15006;SDS011;7599;50.748;13.142;2023-08-30T18:39:03;7.10;;;0.70;;
15006;SDS011;7599;50.748;13.142;2023-08-30T18:42:07;4.93;;;0.50;;
15006;SDS011;7599;50.748;13.142;2023-08-30T18:45:10;3.53;;;0.85;;
15006;SDS011;7599;50.748;13.142;2023-08-30T18:48:12;4.78;;;0.80;;
15006;SDS011;7599;50.748;13.142;2023-08-30T18:51:19;4.82;;;0.52;;
15006;SDS011;7599;50.748;13.142;2023-08-30T18:54:23;3.13;;;0.60;;
15006;SDS011;7599;50.748;13.142;2023-08-30T18:57:27;3.95;;;0.57;;
15006;SDS011;7599;50.748;13.142;2023-08-30T19:00:30;5.05;;;0.73;;
15006;SDS011;7599;50.748;13.142;2023-08-30T19:03:33;3.50;;;0.63;;
15006;SDS011;7599;50.748;13.142;2023-08-30T19:06:37;2.75;;;0.70;;
15006;SDS011;7599;50.748;13.142;2023-08-30T19:09:40;3.08;;;0.70;;
15006;SDS011;7599;50.748;13.142;2023-08-30T19:12:43;5.25;;;0.93;;
15006;SDS011;7599;50.748;13.142;2023-08-30T19:15:46;3.85;;;0.80;;
15006;SDS011;7599;50.748;13.142;2023-08-30T19:18:48;2.90;;;0.60;;
15006;SDS011;7599;50.748;13.142;2023-08-30T19:21:52;3.92;;;0.80;;
15006;SDS011;7599;50.748;13.142;2023-08-30T19:24:55;6.43;;;0.98;;
15006;SDS011;7599;50.748;13.142;2023-08-30T19:27:58;3.30;;;0.70;;
15006;SDS011;7599;50.748;13.142;2023-08-30T19:31:01;5.97;;;0.82;;
15006;SDS011;7599;50.748;13.142;2023-08-30T19:34:03;3.05;;;0.60;;
15006;SDS011;7599;50.748;13.142;2023-08-30T19:37:08;3.03;;;0.45;;
15006;SDS011;7599;50.748;13.142;2023-08-30T19:40:10;3.13;;;0.65;;
15006;SDS011;7599;50.748;13.142;2023-08-30T19:43:14;4.40;;;0.88;;
15006;SDS011;7599;50.748;13.142;2023-08-30T19:46:16;2.05;;;0.55;;
15006;SDS011;7599;50.748;13.142;2023-08-30T19:49:19;1.25;;;0.43;;
15006;SDS011;7599;50.748;13.142;2023-08-30T19:52:24;1.33;;;0.60;;
15006;SDS011;7599;50.748;13.142;2023-08-30T19:55:27;3.35;;;0.63;;
15006;SDS011;7599;50.748;13.142;2023-08-30T19:58:30;4.95;;;0.80;;
15006;SDS011;7599;50.748;13.142;2023-08-30T20:01:32;3.03;;;0.60;;
15006;SDS011;7599;50.748;13.142;2023-08-30T20:04:36;1.05;;;0.63;;
15006;SDS011;7599;50.748;13.142;2023-08-30T20:07:40;2.88;;;0.50;;
15006;SDS011;7599;50.748;13.142;2023-08-30T20:10:43;2.78;;;0.70;;
15006;SDS011;7599;50.748;13.142;2023-08-30T20:13:46;1.00;;;0.50;;
15006;SDS011;7599;50.748;13.142;2023-08-30T20:16:49;1.65;;;0.50;;
15006;SDS011;7599;50.748;13.142;2023-08-30T20:19:52;0.95;;;0.38;;
15006;SDS011;7599;50.748;13.142;2023-08-30T20:22:58;1.55;;;0.52;;
15006;SDS011;7599;50.748;13.142;2023-08-30T20:26:01;2.63;;;1.20;;
15006;SDS011;7599;50.748;13.142;2023-08-30T20:29:04;0.88;;;0.60;;
15006;SDS011;7599;50.748;13.142;2023-08-30T20:32:07;1.40;;;0.60;;
15006;SDS011;7599;50.748;13.142;2023-08-30T20:35:10;0.95;;;0.50;;
15006;SDS011;7599;50.748;13.142;2023-08-30T20:38:14;1.38;;;0.60;;
15006;SDS011;7599;50.748;13.142;2023-08-30T20:41:17;1.33;;;0.70;;
15006;SDS011;7599;50.748;13.142;2023-08-30T20:44:22;1.10;;;0.73;;
15006;SDS011;7599;50.748;13.142;2023-08-30T20:47:24;2.08;;;0.68;;
15006;SDS011;7599;50.748;13.142;2023-08-30T20:50:27;1.77;;;0.80;;
15006;SDS011;7599;50.748;13.142;2023-08-30T20:53:35;0.85;;;0.55;;
15006;SDS011;7599;50.748;13.142;2023-08-30T20:56:38;2.42;;;0.70;;
15006;SDS011;7599;50.748;13.142;2023-08-30T20:59:41;1.73;;;0.50;;
15006;SDS011;7599;50.748;13.142;2023-08-30T21:02:44;0.73;;;0.50;;
15006;SDS011;7599;50.748;13.142;2023-08-30T21:05:47;3.10;;;0.80;;
15006;SDS011;7599;50.748;13.142;2023-08-30T21:08:51;2.95;;;0.75;;
15006;SDS011;7599;50.748;13.142;2023-08-30T21:11:54;1.08;;;0.43;;
15006;SDS011;7599;50.748;13.142;2023-08-30T21:14:57;0.82;;;0.45;;
15006;SDS011;7599;50.748;13.142;2023-08-30T21:18:00;1.20;;;0.63;;
15006;SDS011;7599;50.748;13.142;2023-08-30T21:21:03;1.15;;;0.60;;
15006;SDS011;7599;50.748;13.142;2023-08-30T21:24:07;0.60;;;0.43;;
15006;SDS011;7599;50.748;13.142;2023-08-30T21:27:10;0.98;;;0.55;;
15006;SDS011;7599;50.748;13.142;2023-08-30T21:30:13;2.63;;;0.50;;
15006;SDS011;7599;50.748;13.142;2023-08-30T21:33:19;0.80;;;0.60;;
15006;SDS011;7599;50.748;13.142;2023-08-30T21:36:25;0.70;;;0.50;;
15006;SDS011;7599;50.748;13.142;2023-08-30T21:39:29;2.38;;;0.80;;
15006;SDS011;7599;50.748;13.142;2023-08-30T21:42:32;5.05;;;0.68;;
15006;SDS011;7599;50.748;13.142;2023-08-30T21:45:37;1.60;;;0.50;;
15006;SDS011;7599;50.748;13.142;2023-08-30T21:48:42;1.33;;;0.60;;
15006;SDS011;7599;50.748;13.142;2023-08-30T21:51:44;1.27;;;0.60;;
15006;SDS011;7599;50.748;13.142;2023-08-30T21:54:48;1.27;;;0.50;;
15006;SDS011;7599;50.748;13.142;2023-08-30T21:57:51;1.13;;;0.68;;
15006;SDS011;7599;50.748;13.142;2023-08-30T22:00:55;1.08;;;0.85;;
15006;SDS011;7599;50.748;13.142;2023-08-30T22:03:59;2.97;;;0.70;;
15006;SDS011;7599;50.748;13.142;2023-08-30T22:07:20;1.95;;;0.88;;
15006;SDS011;7599;50.748;13.142;2023-08-30T22:10:25;3.70;;;0.65;;
15006;SDS011;7599;50.748;13.142;2023-08-30T22:13:27;0.82;;;0.70;;
15006;SDS011;7599;50.748;13.142;2023-08-30T22:16:30;1.23;;;0.60;;
15006;SDS011;7599;50.748;13.142;2023-08-30T22:19:33;0.60;;;0.60;;
15006;SDS011;7599;50.748;13.142;2023-08-30T22:22:35;1.17;;;0.70;;
15006;SDS011;7599;50.748;13.142;2023-08-30T22:25:40;0.70;;;0.52;;
15006;SDS011;7599;50.748;13.142;2023-08-30T22:28:44;1.23;;;0.60;;
15006;SDS011;7599;50.748;13.142;2023-08-30T22:31:49;1.75;;;0.55;;
15006;SDS011;7599;50.748;13.142;2023-08-30T22:35:02;0.93;;;0.70;;
15006;SDS011;7599;50.748;13.142;2023-08-30T22:38:07;2.42;;;0.70;;
15006;SDS011;7599;50.748;13.142;2023-08-30T22:41:13;0.88;;;0.70;;
15006;SDS011;7599;50.748;13.142;2023-08-30T22:44:17;0.60;;;0.57;;
15006;SDS011;7599;50.748;13.142;2023-08-30T22:47:20;1.45;;;0.60;;
15006;SDS011;7599;50.748;13.142;2023-08-30T22:50:40;1.77;;;0.70;;
15006;SDS011;7599;50.748;13.142;2023-08-30T22:53:44;0.70;;;0.60;;
15006;SDS011;7599;50.748;13.142;2023-08-30T22:56:49;0.57;;;0.52;;
15006;SDS011;7599;50.748;13.142;2023-08-30T22:59:52;1.85;;;0.55;;
15006;SDS011;7599;50.748;13.142;2023-08-30T23:02:54;1.88;;;0.50;;
15006;SDS011;7599;50.748;13.142;2023-08-30T23:05:57;1.15;;;0.60;;
15006;SDS011;7599;50.748;13.142;2023-08-30T23:09:05;1.00;;;0.80;;
15006;SDS011;7599;50.748;13.142;2023-08-30T23:12:09;1.52;;;0.50;;
15006;SDS011;7599;50.748;13.142;2023-08-30T23:15:17;0.85;;;0.60;;
15006;SDS011;7599;50.748;13.142;2023-08-30T23:18:25;1.13;;;0.70;;
15006;SDS011;7599;50.748;13.142;2023-08-30T23:21:28;1.38;;;0.70;;
15006;SDS011;7599;50.748;13.142;2023-08-30T23:24:31;0.90;;;0.60;;
15006;SDS011;7599;50.748;13.142;2023-08-30T23:27:35;0.70;;;0.60;;
15006;SDS011;7599;50.748;13.142;2023-08-30T23:30:38;0.95;;;0.65;;
15006;SDS011;7599;50.748;13.142;2023-08-30T23:33:41;0.85;;;0.60;;
15006;SDS011;7599;50.748;13.142;2023-08-30T23:36:44;0.77;;;0.57;;
15006;SDS011;7599;50.748;13.142;2023-08-30T23:39:47;3.33;;;0.85;;
15006;SDS011;7599;50.748;13.142;2023-08-30T23:42:51;1.65;;;0.70;;
15006;SDS011;7599;50.748;13.142;2023-08-30T23:45:53;1.17;;;0.88;;
15006;SDS011;7599;50.748;13.142;2023-08-30T23:48:57;0.52;;;0.52;;
15006;SDS011;7599;50.748;13.142;2023-08-30T23:52:00;1.27;;;0.60;;
15006;SDS011;7599;50.748;13.142;2023-08-30T23:55:03;2.03;;;1.50;;
15006;SDS011;7599;50.748;13.142;2023-08-30T23:58:08;0.60;;;0.50;;
